Time;durP1;ratioP1;P1;durP2;ratioP2;P2;SDS_P1;SDS_P2;PMS_P1;PMS_P2;Temp;Humidity;BMP_temperature;BMP_pressure;BME280_temperature;BME280_humidity;BME280_pressure;Samples;Min_cycle;Max_cycle;Signal;HPM_P1;HPM_P2
2023/03/11 00:00:39;;;;;;;16.75;2.28;;;;;;;3.28;91.86;99625.41;8361291;28;20442;-53
2023/03/11 00:04:40;;;;;;;17.63;2.00;;;;;;;3.29;92.04;99626.25;8372903;28;20029;-51
2023/03/11 00:08:40;;;;;;;7.40;1.70;;;;;;;3.27;92.97;99633.53;8416363;28;20089;-53
2023/03/11 00:12:41;;;;;;;12.60;2.40;;;;;;;3.30;91.75;99628.78;8423711;28;20475;-52
2023/03/11 00:16:42;;;;;;;9.52;1.52;;;;;;;3.32;91.23;99642.91;8425234;28;20044;-52
2023/03/11 00:20:44;;;;;;;13.88;2.63;;;;;;;3.30;91.22;99644.00;8424475;28;20047;-60
2023/03/11 00:24:45;;;;;;;9.93;1.50;;;;;;;3.37;91.40;99651.41;8391397;28;20143;-58
2023/03/11 00:28:47;;;;;;;10.90;1.75;;;;;;;3.34;92.17;99667.69;8358374;28;20499;-59
2023/03/11 00:32:51;;;;;;;6.70;2.15;;;;;;;3.31;92.01;99670.56;8366608;28;20488;-59
2023/03/11 00:36:51;;;;;;;17.30;3.08;;;;;;;3.31;91.04;99673.25;8381830;28;20116;-59
2023/03/11 00:40:52;;;;;;;20.00;3.38;;;;;;;3.35;90.07;99677.38;8379811;28;20037;-59
2023/03/11 00:44:52;;;;;;;11.30;1.83;;;;;;;3.38;89.81;99669.13;8367710;28;20048;-59
2023/03/11 00:48:53;;;;;;;7.70;2.15;;;;;;;3.35;89.26;99674.72;8373369;28;20040;-59
2023/03/11 00:52:54;;;;;;;6.68;1.70;;;;;;;3.35;89.63;99690.75;8371657;28;20465;-59
2023/03/11 00:56:54;;;;;;;13.07;1.63;;;;;;;3.32;88.68;99685.63;8374162;28;20037;-59
2023/03/11 01:00:55;;;;;;;9.70;2.75;;;;;;;3.33;87.97;99692.66;8375045;28;20120;-53
2023/03/11 01:04:55;;;;;;;11.00;1.45;;;;;;;3.35;88.01;99701.41;8375455;28;20040;-53
2023/03/11 01:08:56;;;;;;;9.88;1.55;;;;;;;3.34;86.56;99694.38;8355324;28;20037;-52
2023/03/11 01:12:56;;;;;;;8.85;1.65;;;;;;;3.31;87.33;99694.63;8356363;28;20066;-52
2023/03/11 01:16:57;;;;;;;11.30;2.35;;;;;;;3.28;88.34;99697.50;8357963;28;20106;-53
2023/03/11 01:20:58;;;;;;;12.05;1.92;;;;;;;3.19;88.09;99694.66;8355812;28;20048;-52
2023/03/11 01:24:58;;;;;;;10.90;1.65;;;;;;;3.10;87.15;99706.91;8357118;28;20058;-53
2023/03/11 01:28:59;;;;;;;8.10;1.55;;;;;;;3.12;86.74;99720.13;8367465;28;20036;-52
2023/03/11 01:32:59;;;;;;;9.68;1.70;;;;;;;3.04;86.98;99723.38;8380493;28;20518;-52
2023/03/11 01:37:02;;;;;;;11.30;1.50;;;;;;;2.95;87.47;99728.50;8356598;28;20495;-52
2023/03/11 01:41:02;;;;;;;10.25;2.22;;;;;;;2.94;87.66;99722.34;8375471;28;20048;-53
2023/03/11 01:45:42;;;;;;;13.27;1.70;;;;;;;2.84;87.62;99726.63;8374000;28;20044;-52
2023/03/11 01:49:47;;;;;;;16.88;2.20;;;;;;;2.87;87.55;99731.75;8385060;28;20036;-52
2023/03/11 01:53:48;;;;;;;6.32;1.48;;;;;;;2.82;87.20;99741.06;8391920;28;20123;-53
2023/03/11 01:57:50;;;;;;;5.53;1.30;;;;;;;2.82;87.13;99738.38;8390563;28;20040;-51
2023/03/11 02:02:00;;;;;;;7.90;1.55;;;;;;;2.76;86.06;99739.69;8389583;28;20040;-51
2023/03/11 02:06:05;;;;;;;13.30;1.75;;;;;;;2.74;85.95;99746.94;8391771;28;20499;-53
2023/03/11 02:10:07;;;;;;;7.88;1.48;;;;;;;2.54;86.46;99742.22;8389777;28;20044;-52
2023/03/11 02:14:08;;;;;;;12.20;2.10;;;;;;;2.59;85.20;99737.38;8390912;28;20514;-52
2023/03/11 02:18:13;;;;;;;10.23;1.95;;;;;;;2.75;85.03;99748.66;8391530;28;20406;-50
2023/03/11 02:22:15;;;;;;;18.58;2.67;;;;;;;2.83;84.36;99740.94;8390794;28;20502;-50
2023/03/11 02:26:22;;;;;;;10.52;2.08;;;;;;;2.83;84.47;99738.28;8358743;28;20045;-52
2023/03/11 02:30:26;;;;;;;12.75;1.55;;;;;;;2.83;84.28;99743.63;8358253;28;20128;-52
2023/03/11 02:34:31;;;;;;;9.50;2.13;;;;;;;2.80;84.24;99741.16;8384862;28;20040;-52
2023/03/11 02:38:31;;;;;;;;;;;;;;;2.76;84.23;99755.69;8391985;28;20048;-53
2023/03/11 02:42:32;;;;;;;8.95;1.75;;;;;;;2.63;84.54;99754.88;8390331;28;19916;-52
2023/03/11 02:46:35;;;;;;;14.75;1.95;;;;;;;2.58;84.15;99761.50;8390760;28;20062;-52
2023/03/11 02:50:36;;;;;;;9.25;1.75;;;;;;;2.59;84.62;99764.03;8391088;28;20047;-53
2023/03/11 02:54:37;;;;;;;13.55;2.22;;;;;;;2.56;84.80;99761.59;8421818;28;20048;-54
2023/03/11 02:58:38;;;;;;;11.52;1.85;;;;;;;2.52;84.06;99762.78;8390015;28;20052;-52
2023/03/11 03:02:40;;;;;;;10.60;1.75;;;;;;;2.51;84.11;99761.09;8389623;28;20040;-53
2023/03/11 03:06:41;;;;;;;7.05;1.65;;;;;;;2.45;84.16;99758.84;8388963;28;20110;-54
2023/03/11 03:10:41;;;;;;;5.70;2.00;;;;;;;2.54;83.08;99766.22;8390634;28;20032;-52
2023/03/11 03:14:42;;;;;;;10.93;2.20;;;;;;;2.48;83.29;99761.31;8390253;28;20037;-53
2023/03/11 03:18:43;;;;;;;4.63;1.27;;;;;;;2.44;83.92;99759.81;8389293;28;20094;-53
2023/03/11 03:22:44;;;;;;;4.13;1.38;;;;;;;2.40;83.68;99763.66;8388444;28;20033;-53
2023/03/11 03:26:47;;;;;;;6.00;1.65;;;;;;;2.41;83.02;99769.84;8391450;28;20060;-57
2023/03/11 03:30:48;;;;;;;8.02;1.88;;;;;;;2.30;84.04;99772.41;8394663;28;20044;-59
2023/03/11 03:34:49;;;;;;;12.60;1.98;;;;;;;2.25;84.21;99775.38;8395955;28;20771;-58
2023/03/11 03:38:58;;;;;;;8.75;2.03;;;;;;;2.18;84.85;99783.91;8395622;28;20033;-58
2023/03/11 03:43:04;;;;;;;8.98;2.20;;;;;;;2.13;84.91;99797.56;8395082;28;20046;-59
2023/03/11 03:47:06;;;;;;;10.48;1.83;;;;;;;2.00;85.31;99796.69;8395863;28;20039;-59
2023/03/11 03:51:10;;;;;;;6.22;2.00;;;;;;;1.92;86.20;99804.34;8395269;28;20051;-59
2023/03/11 03:55:15;;;;;;;14.70;2.75;;;;;;;1.89;87.91;99809.88;8395718;28;20032;-59
2023/03/11 03:59:16;;;;;;;18.45;2.65;;;;;;;1.85;89.35;99819.94;8394386;28;20051;-59
2023/03/11 04:03:24;;;;;;;9.52;2.17;;;;;;;1.84;88.22;99802.25;8392607;28;20056;-53
2023/03/11 04:07:32;;;;;;;11.10;3.17;;;;;;;1.85;88.62;99816.41;8393309;28;20561;-53
2023/03/11 04:11:33;;;;;;;16.17;2.22;;;;;;;1.87;90.82;99812.66;8394033;28;20044;-50
2023/03/11 04:15:38;;;;;;;7.68;2.00;;;;;;;1.82;91.76;99816.59;8394959;28;20037;-52
2023/03/11 04:19:39;;;;;;;12.48;2.50;;;;;;;1.69;92.95;99810.41;8394588;28;20415;-52
2023/03/11 04:23:40;;;;;;;14.50;2.50;;;;;;;1.67;93.55;99814.97;8393239;28;20033;-53
2023/03/11 04:27:44;;;;;;;12.90;2.67;;;;;;;1.72;93.67;99819.06;8392852;28;20037;-52
2023/03/11 04:31:46;;;;;;;12.35;3.15;;;;;;;1.59;93.42;99828.78;8382678;28;20032;-52
2023/03/11 04:35:47;;;;;;;7.40;2.42;;;;;;;1.57;94.12;99836.03;8394238;28;20039;-52
2023/03/11 04:39:49;;;;;;;11.82;2.03;;;;;;;1.55;94.04;99837.06;8393934;28;20052;-51
2023/03/11 04:43:50;;;;;;;11.05;2.67;;;;;;;1.51;94.30;99841.78;8392998;28;20052;-52
2023/03/11 04:47:51;;;;;;;14.73;2.78;;;;;;;1.47;94.25;99834.91;8393473;28;20056;-52
2023/03/11 04:51:52;;;;;;;14.90;3.58;;;;;;;1.43;95.27;99843.22;8393308;28;20060;-52
2023/03/11 04:55:55;;;;;;;14.25;2.88;;;;;;;1.41;94.86;99845.13;8393453;28;20058;-52
2023/03/11 04:59:56;;;;;;;13.70;2.53;;;;;;;1.41;94.47;99853.13;8392668;28;20044;-51
2023/03/11 05:03:57;;;;;;;8.02;2.45;;;;;;;1.34;94.68;99849.16;8391698;28;20458;-52
2023/03/11 05:07:57;;;;;;;8.15;2.60;;;;;;;1.33;94.20;99861.59;8392294;28;20045;-52
2023/03/11 05:11:59;;;;;;;14.73;2.67;;;;;;;1.27;93.36;99853.16;8391995;28;20032;-52
2023/03/11 05:16:01;;;;;;;19.55;3.17;;;;;;;1.17;93.04;99862.69;8392509;28;20507;-51
2023/03/11 05:20:04;;;;;;;3.90;2.05;;;;;;;1.10;94.20;99866.69;8392379;28;20512;-52
2023/03/11 05:24:06;;;;;;;9.60;2.28;;;;;;;1.13;91.70;99874.50;8390864;28;20046;-52
2023/03/11 05:28:07;;;;;;;13.48;2.80;;;;;;;1.18;91.73;99885.69;8391898;28;20123;-59
2023/03/11 05:32:12;;;;;;;16.92;3.13;;;;;;;1.24;94.13;99879.97;8391616;28;20119;-60
2023/03/11 05:36:13;;;;;;;14.90;2.80;;;;;;;1.23;93.10;99883.59;8392575;28;20090;-59
2023/03/11 05:40:17;;;;;;;15.90;2.67;;;;;;;0.93;93.64;99874.88;8386531;28;20465;-58
2023/03/11 05:44:17;;;;;;;13.27;2.22;;;;;;;1.08;95.04;99893.41;8391636;28;20041;-58
2023/03/11 05:48:18;;;;;;;9.10;2.72;;;;;;;1.35;93.21;99898.78;8391622;28;20522;-58
2023/03/11 05:52:19;;;;;;;6.03;2.80;;;;;;;1.56;93.79;99894.75;8391884;28;20045;-59
2023/03/11 05:56:22;;;;;;;14.07;2.58;;;;;;;1.66;93.72;99887.84;8391316;28;20036;-59
2023/03/11 06:00:23;;;;;;;14.10;3.42;;;;;;;1.77;93.95;99896.00;8390784;28;20040;-59
2023/03/11 06:04:26;;;;;;;15.53;4.77;;;;;;;1.87;95.19;99902.44;8388064;28;20066;-59
2023/03/11 06:08:29;;;;;;;11.57;3.20;;;;;;;1.85;95.31;99899.00;8391418;28;20036;-59
2023/03/11 06:12:33;;;;;;;11.80;2.58;;;;;;;1.94;96.51;99909.91;8387356;28;20088;-52
2023/03/11 06:16:45;;;;;;;15.75;3.08;;;;;;;2.04;96.25;99905.66;8374070;28;20037;-53
2023/03/11 06:20:45;;;;;;;15.10;2.70;;;;;;;2.11;94.47;99905.25;8367008;28;20094;-52
2023/03/11 06:24:46;;;;;;;10.82;2.55;;;;;;;2.21;93.06;99912.53;8377223;28;20074;-53
2023/03/11 06:28:48;;;;;;;16.85;2.92;;;;;;;2.27;93.22;99920.13;8387017;28;20041;-52
2023/03/11 06:32:49;;;;;;;15.23;2.85;;;;;;;2.30;93.01;99932.41;8386286;28;20037;-52
2023/03/11 06:36:50;;;;;;;14.82;2.90;;;;;;;2.35;92.91;99928.44;8386107;28;20044;-52
2023/03/11 06:40:51;;;;;;;13.50;3.10;;;;;;;2.25;93.49;99930.03;8388292;28;20040;-52
2023/03/11 06:44:51;;;;;;;15.20;3.72;;;;;;;2.36;94.25;99943.50;8387730;28;20510;-52
2023/03/11 06:48:53;;;;;;;11.73;2.63;;;;;;;2.33;93.26;99948.19;8381670;28;20437;-58
2023/03/11 06:52:56;;;;;;;8.63;3.10;;;;;;;2.38;93.84;99946.91;8383583;28;20502;-58
2023/03/11 06:56:57;;;;;;;20.17;7.28;;;;;;;2.39;92.82;99963.78;8386383;28;20666;-56
2023/03/11 07:01:01;;;;;;;17.58;6.35;;;;;;;2.38;93.66;99973.56;8384050;28;20804;-57
2023/03/11 07:05:03;;;;;;;18.88;4.55;;;;;;;2.36;94.72;99983.50;8393303;28;20029;-56
2023/03/11 07:09:05;;;;;;;16.92;5.05;;;;;;;2.30;94.60;99985.72;8397997;28;20045;-57
2023/03/11 07:13:07;;;;;;;20.10;4.03;;;;;;;2.29;95.45;99995.56;8389643;28;20487;-57
2023/03/11 07:17:08;;;;;;;13.68;4.15;;;;;;;2.29;95.64;100002.69;8390079;28;20647;-56
2023/03/11 07:21:18;;;;;;;11.32;4.43;;;;;;;2.29;95.38;100008.88;8379052;28;20131;-56
2023/03/11 07:25:18;;;;;;;15.98;5.03;;;;;;;2.61;95.01;100012.91;8390945;28;20041;-56
2023/03/11 07:29:19;;;;;;;16.33;6.10;;;;;;;2.98;92.95;100022.81;8383182;28;20044;-56
2023/03/11 07:33:21;;;;;;;10.38;5.20;;;;;;;3.02;91.71;100010.09;8383105;28;20047;-56
2023/03/11 07:37:22;;;;;;;12.88;4.93;;;;;;;3.23;92.01;100022.81;8382740;28;20563;-56
2023/03/11 07:41:22;;;;;;;18.65;4.60;;;;;;;3.64;90.83;100034.13;8377539;28;20083;-56
2023/03/11 07:45:23;;;;;;;9.57;4.00;;;;;;;3.86;88.85;100050.34;8379153;28;20040;-56
2023/03/11 07:49:23;;;;;;;9.07;4.65;;;;;;;4.05;87.68;100058.72;8378748;28;20461;-57
2023/03/11 07:53:24;;;;;;;11.80;4.32;;;;;;;4.28;85.82;100057.06;8379692;28;20060;-57
2023/03/11 07:57:24;;;;;;;17.35;4.57;;;;;;;4.21;86.20;100065.66;8373729;28;20124;-57
2023/03/11 08:01:29;;;;;;;11.73;4.70;;;;;;;4.35;85.68;100066.34;8374673;28;20657;-57
2023/03/11 08:05:33;;;;;;;13.35;4.82;;;;;;;4.57;84.21;100066.47;8370313;28;20040;-56
2023/03/11 08:09:34;;;;;;;8.60;3.65;;;;;;;4.57;83.45;100068.31;8380481;28;20048;-57
2023/03/11 08:13:35;;;;;;;15.52;3.30;;;;;;;4.54;82.50;100074.72;8385509;28;20053;-58
2023/03/11 08:17:35;;;;;;;10.27;3.63;;;;;;;4.67;82.45;100072.81;8381239;28;20052;-58
2023/03/11 08:21:35;;;;;;;12.32;3.63;;;;;;;4.95;79.55;100085.00;8382585;28;20520;-58
2023/03/11 08:25:38;;;;;;;6.93;2.75;;;;;;;5.31;79.28;100077.69;8373426;28;20037;-58
2023/03/11 08:29:39;;;;;;;7.38;3.08;;;;;;;5.32;77.32;100076.75;8373757;28;20041;-58
2023/03/11 08:33:40;;;;;;;11.40;2.60;;;;;;;5.38;77.83;100072.72;8376812;28;20037;-58
2023/03/11 08:37:41;;;;;;;10.02;3.10;;;;;;;5.37;75.93;100079.06;8369271;28;20064;-58
2023/03/11 08:41:41;;;;;;;6.90;2.55;;;;;;;5.33;74.08;100075.75;8372642;28;20112;-59
2023/03/11 08:45:42;;;;;;;18.13;4.90;;;;;;;5.17;74.96;100087.75;8383396;28;20032;-59
2023/03/11 08:49:43;;;;;;;12.27;2.38;;;;;;;5.15;72.95;100084.34;8389667;28;20036;-60
2023/03/11 08:53:43;;;;;;;23.65;3.22;;;;;;;5.73;74.63;100095.81;8381813;28;20094;-59
2023/03/11 08:57:43;;;;;;;12.43;2.80;;;;;;;5.79;72.95;100089.09;8387434;28;20049;-59
2023/03/11 09:01:45;;;;;;;6.28;2.17;;;;;;;6.02;73.41;100090.84;8388237;28;20048;-52
2023/03/11 09:05:46;;;;;;;10.70;2.35;;;;;;;6.15;73.69;100091.56;8387967;28;20036;-59
2023/03/11 09:09:46;;;;;;;7.45;2.60;;;;;;;6.20;72.13;100086.69;8379465;28;20552;-59
2023/03/11 09:13:47;;;;;;;6.90;1.88;;;;;;;6.39;73.94;100081.53;8385668;28;20043;-59
2023/03/11 09:17:48;;;;;;;9.30;1.77;;;;;;;6.10;70.27;100077.66;8387040;28;20106;-59
2023/03/11 09:21:48;;;;;;;7.68;2.53;;;;;;;6.52;70.32;100079.56;8385564;28;20040;-59
2023/03/11 09:25:49;;;;;;;12.20;2.15;;;;;;;6.26;67.08;100077.28;8370257;28;20525;-59
2023/03/11 09:29:49;;;;;;;10.70;2.15;;;;;;;7.34;65.87;100066.25;8374773;28;20040;-59
2023/03/11 09:33:51;;;;;;;8.68;2.30;;;;;;;8.85;60.46;100066.16;8386664;28;20037;-60
2023/03/11 09:37:52;;;;;;;3.42;1.02;;;;;;;9.59;52.64;100073.50;8367672;28;20492;-59
2023/03/11 09:41:55;;;;;;;4.22;1.67;;;;;;;10.19;54.70;100085.69;8344697;28;20462;-59
2023/03/11 09:46:21;;;;;;;8.87;1.33;;;;;;;10.79;51.39;100082.34;8345142;28;20523;-59
2023/03/11 09:50:29;;;;;;;3.35;1.38;;;;;;;11.26;50.21;100095.50;8347100;28;20057;-59
2023/03/11 09:54:42;;;;;;;6.32;2.10;;;;;;;13.46;51.14;100099.03;8406330;28;20070;-59
2023/03/11 09:58:49;;;;;;;4.13;1.52;;;;;;;14.40;50.17;100102.84;8419402;28;20043;-59
2023/03/11 10:02:50;;;;;;;9.68;2.08;;;;;;;13.65;48.00;100109.56;8387547;28;20039;-59
2023/03/11 10:06:50;;;;;;;7.00;1.67;;;;;;;12.10;51.08;100120.25;8382201;28;20032;-58
2023/03/11 10:11:08;;;;;;;6.43;1.60;;;;;;;12.05;51.09;100111.75;8376334;28;20040;-59
2023/03/11 10:19:51;;;;;;;3.88;0.80;;;;;;;8.29;50.30;100137.78;8347423;27;20388;-58
2023/03/11 10:28:16;;;;;;;6.63;1.10;;;;;;;6.88;57.45;100146.38;8308851;27;20357;-58
2023/03/11 10:32:27;;;;;;;6.45;1.08;;;;;;;6.62;57.67;100147.63;8305402;28;20060;-58
2023/03/11 10:36:38;;;;;;;10.63;1.85;;;;;;;6.90;62.37;100155.16;8288645;28;20054;-58
2023/03/11 10:40:41;;;;;;;11.48;1.38;;;;;;;7.07;62.64;100146.53;8299548;28;20033;-53
2023/03/11 10:44:42;;;;;;;6.40;1.20;;;;;;;6.82;60.15;100146.88;8309890;28;20046;-55
2023/03/11 10:48:43;;;;;;;7.07;1.63;;;;;;;6.70;58.48;100142.50;8298773;28;20048;-52
2023/03/11 10:53:04;;;;;;;4.90;1.10;;;;;;;7.43;57.02;100121.09;8295472;28;20403;-53
2023/03/11 10:57:20;;;;;;;4.97;1.10;;;;;;;8.83;53.59;100132.81;8307706;28;20041;-52
2023/03/11 11:01:21;;;;;;;3.05;1.05;;;;;;;10.68;52.03;100128.53;8292974;28;20088;-56
2023/03/11 11:05:37;;;;;;;6.97;1.20;;;;;;;9.32;50.52;100122.81;8312729;28;20041;-56
2023/03/11 11:09:37;;;;;;;9.13;1.27;;;;;;;8.56;51.70;100127.22;8327108;28;20551;-57
2023/03/11 11:13:38;;;;;;;7.07;1.27;;;;;;;8.56;56.73;100135.31;8313147;28;20504;-56
2023/03/11 11:17:39;;;;;;;3.58;1.00;;;;;;;8.44;53.63;100131.00;8312652;28;20315;-57
2023/03/11 11:21:47;;;;;;;3.60;1.05;;;;;;;8.23;53.83;100139.16;8309627;28;20108;-56
2023/03/11 11:25:58;;;;;;;5.13;2.08;;;;;;;7.73;55.83;100145.38;8309491;28;20042;-52
2023/03/11 11:30:18;;;;;;;9.73;1.20;;;;;;;7.35;57.96;100156.69;8313207;28;20052;-51
2023/03/11 11:34:28;;;;;;;4.45;1.13;;;;;;;7.11;59.67;100157.91;8318812;28;20492;-51
2023/03/11 11:38:31;;;;;;;6.40;1.67;;;;;;;7.07;58.29;100161.81;8308771;28;20069;-51
2023/03/11 11:42:32;;;;;;;5.97;1.15;;;;;;;7.01;59.24;100152.44;8290146;28;20125;-50
2023/03/11 11:46:40;;;;;;;2.90;1.30;;;;;;;7.58;56.04;100143.97;8281691;28;20084;-52
2023/03/11 11:50:47;;;;;;;5.55;0.90;;;;;;;8.37;55.60;100151.41;8262868;28;20045;-51
2023/03/11 11:54:53;;;;;;;5.40;1.10;;;;;;;7.78;53.09;100143.97;8271563;28;20045;-55
2023/03/11 11:58:54;;;;;;;4.63;1.02;;;;;;;8.54;54.75;100148.06;8282919;28;20117;-53
2023/03/11 12:11:50;;;;;;;5.72;0.90;;;;;;;11.68;49.32;100137.22;8344906;27;20358;-52
2023/03/11 12:16:22;;;;;;;6.18;0.90;;;;;;;11.13;49.94;100135.66;8376571;28;20033;-55
2023/03/11 12:20:32;;;;;;;3.53;0.90;;;;;;;12.62;49.91;100138.13;8361568;28;20037;-55
2023/03/11 12:24:58;;;;;;;5.20;1.15;;;;;;;10.40;47.22;100141.19;8368998;28;20388;-61
2023/03/11 12:29:05;;;;;;;1.35;0.73;;;;;;;9.71;49.83;100142.50;8366304;28;20079;-60
2023/03/11 12:33:16;;;;;;;6.30;1.10;;;;;;;8.59;50.74;100125.13;8365633;28;20523;-58
2023/03/11 12:37:20;;;;;;;3.97;1.27;;;;;;;8.49;53.99;100134.16;8346753;28;20055;-57
2023/03/11 12:41:30;;;;;;;10.43;1.88;;;;;;;8.34;53.29;100125.59;8374967;28;20043;-58
2023/03/11 12:45:51;;;;;;;4.40;1.40;;;;;;;8.19;53.42;100117.97;8370035;28;20435;-58
2023/03/11 12:49:54;;;;;;;4.22;1.00;;;;;;;7.91;55.50;100124.94;8378675;28;20568;-58
2023/03/11 12:53:55;;;;;;;4.72;1.45;;;;;;;7.78;53.74;100122.44;8346336;28;20056;-58
2023/03/11 12:58:04;;;;;;;3.45;0.98;;;;;;;7.74;53.25;100121.03;8377987;28;20040;-60
2023/03/11 13:07:05;;;;;;;5.03;1.00;;;;;;;8.31;54.85;100119.63;8343008;27;20387;-58
2023/03/11 13:11:29;;;;;;;4.40;0.73;;;;;;;8.40;54.51;100122.38;8341368;28;20067;-51
2023/03/11 13:15:33;;;;;;;;;;;;;;;8.21;55.85;100118.72;8320878;28;20045;-58
2023/03/11 13:19:35;;;;;;;4.88;1.00;;;;;;;8.34;55.86;100124.75;8344002;28;20366;-59
2023/03/11 13:23:39;;;;;;;3.70;0.95;;;;;;;8.37;54.78;100119.06;8335735;28;20045;-59
2023/03/11 13:27:46;;;;;;;7.05;0.95;;;;;;;8.30;54.29;100124.19;8322798;28;20048;-59
2023/03/11 13:32:26;;;;;;;5.43;1.05;;;;;;;8.67;56.39;100127.97;8336312;28;20029;-56
2023/03/11 13:36:54;;;;;;;5.55;1.40;;;;;;;8.28;54.15;100125.28;8343949;28;20346;-56
2023/03/11 13:40:54;;;;;;;4.28;1.38;;;;;;;7.86;53.85;100129.88;8335746;28;20037;-57
2023/03/11 13:44:56;;;;;;;5.00;0.88;;;;;;;7.71;52.79;100126.66;8332037;28;20091;-57
2023/03/11 13:49:06;;;;;;;6.53;1.23;;;;;;;7.72;54.74;100114.06;8342437;28;20110;-58
2023/03/11 13:53:16;;;;;;;3.90;0.95;;;;;;;8.03;55.00;100132.78;8339166;28;20120;-57
2023/03/11 13:57:28;;;;;;;4.40;1.13;;;;;;;7.78;55.39;100118.94;8327720;28;20030;-57
2023/03/11 14:01:28;;;;;;;4.07;1.20;;;;;;;7.29;55.49;100119.56;8331058;28;20384;-58
2023/03/11 14:05:32;;;;;;;5.97;1.08;;;;;;;7.34;56.32;100122.72;8340410;28;20054;-59
2023/03/11 14:09:33;;;;;;;5.43;1.50;;;;;;;7.33;57.18;100109.41;8339113;28;20048;-59
2023/03/11 14:13:39;;;;;;;6.22;1.23;;;;;;;7.11;56.80;100113.03;8345453;28;20361;-59
2023/03/11 14:17:39;;;;;;;6.43;1.00;;;;;;;7.25;56.94;100118.13;8310821;28;20041;-59
2023/03/11 14:21:43;;;;;;;9.55;2.05;;;;;;;7.54;58.37;100129.94;8336124;28;20526;-59
2023/03/11 14:25:43;;;;;;;3.55;1.00;;;;;;;7.10;55.08;100145.44;8311370;28;20084;-59
2023/03/11 14:29:45;;;;;;;8.35;1.10;;;;;;;7.05;56.51;100148.50;8319718;28;20038;-58
2023/03/11 14:33:55;;;;;;;6.43;1.73;;;;;;;7.28;57.31;100144.75;8302987;28;20391;-57
2023/03/11 14:37:56;;;;;;;5.13;1.40;;;;;;;7.32;56.93;100146.19;8313573;28;20042;-53
2023/03/11 14:42:21;;;;;;;2.78;1.10;;;;;;;7.19;56.93;100145.53;8317348;28;20029;-53
2023/03/11 14:46:28;;;;;;;5.03;1.13;;;;;;;7.59;64.54;100143.84;8351869;28;20033;-50
2023/03/11 14:50:31;;;;;;;6.57;1.25;;;;;;;7.50;57.47;100150.00;8352643;28;20032;-51
2023/03/11 14:54:34;;;;;;;5.63;1.27;;;;;;;7.31;57.76;100133.75;8327419;28;20388;-50
2023/03/11 14:58:40;;;;;;;8.52;1.58;;;;;;;7.24;56.31;100140.63;8311233;28;20218;-53
2023/03/11 15:02:51;;;;;;;3.80;1.20;;;;;;;7.22;57.50;100157.84;8320146;28;20053;-53
2023/03/11 15:06:53;;;;;;;5.45;1.23;;;;;;;7.03;55.98;100155.84;8304889;28;20554;-53
2023/03/11 15:11:03;;;;;;;6.55;1.40;;;;;;;7.37;58.42;100149.34;8297100;28;20037;-53
2023/03/11 15:15:20;;;;;;;3.28;1.08;;;;;;;7.22;56.33;100150.63;8303564;28;20655;-52
2023/03/11 15:19:33;;;;;;;7.80;1.20;;;;;;;7.25;56.35;100155.75;8300521;28;20092;-54
2023/03/11 15:23:35;;;;;;;4.38;1.38;;;;;;;6.90;56.06;100149.78;8301638;28;20042;-52
2023/03/11 15:27:37;;;;;;;6.47;1.38;;;;;;;7.17;56.13;100158.22;8317797;28;20456;-52
2023/03/11 15:31:38;;;;;;;4.93;1.77;;;;;;;7.18;57.70;100157.25;8320227;28;20137;-53
2023/03/11 15:35:47;;;;;;;7.32;1.50;;;;;;;7.28;57.25;100154.63;8303110;28;20038;-54
2023/03/11 15:39:50;;;;;;;4.68;1.10;;;;;;;7.09;57.03;100160.72;8315340;28;20045;-53
2023/03/11 15:43:51;;;;;;;36.55;8.80;;;;;;;7.04;56.68;100157.53;8311236;28;20052;-53
2023/03/11 15:47:51;;;;;;;3.90;1.10;;;;;;;7.09;55.69;100155.34;8297086;28;20502;-53
2023/03/11 15:51:52;;;;;;;16.17;2.30;;;;;;;6.97;56.37;100153.66;8302415;28;20130;-52
2023/03/11 15:55:55;;;;;;;3.80;1.50;;;;;;;7.04;56.62;100149.47;8290094;28;20037;-53
2023/03/11 15:59:58;;;;;;;5.20;1.50;;;;;;;6.92;56.18;100146.97;8310534;28;20045;-52
2023/03/11 16:03:59;;;;;;;4.25;1.40;;;;;;;6.88;57.66;100146.38;8309310;28;20338;-50
2023/03/11 16:07:59;;;;;;;8.10;1.27;;;;;;;6.89;58.13;100152.59;8304551;28;20100;-50
2023/03/11 16:12:01;;;;;;;5.75;1.48;;;;;;;6.87;56.56;100144.66;8292438;28;20041;-59
2023/03/11 16:16:01;;;;;;;4.05;1.48;;;;;;;6.87;55.72;100152.72;8290601;28;20041;-53
2023/03/11 16:20:02;;;;;;;6.75;1.10;;;;;;;6.77;56.37;100153.59;8337606;28;20044;-53
2023/03/11 16:24:03;;;;;;;4.57;1.13;;;;;;;6.71;56.15;100154.94;8318038;28;20103;-53
2023/03/11 16:28:05;;;;;;;6.60;1.30;;;;;;;6.63;55.85;100154.72;8318433;28;20577;-53
2023/03/11 16:32:07;;;;;;;4.75;1.05;;;;;;;6.60;55.84;100146.94;8317550;28;20041;-54
2023/03/11 16:36:09;;;;;;;4.90;1.17;;;;;;;6.73;55.81;100158.38;8304465;28;20487;-51
2023/03/11 16:40:13;;;;;;;3.90;1.20;;;;;;;6.64;57.05;100156.44;8293843;28;20125;-54
2023/03/11 16:44:13;;;;;;;5.53;0.98;;;;;;;6.58;55.41;100164.13;8307340;28;20088;-54
2023/03/11 16:48:13;;;;;;;6.43;1.25;;;;;;;6.51;56.15;100158.41;8316942;28;20534;-53
2023/03/11 16:52:14;;;;;;;4.50;1.25;;;;;;;6.56;55.81;100161.56;8310316;28;20539;-53
2023/03/11 16:56:16;;;;;;;5.13;1.83;;;;;;;6.44;56.43;100167.06;8351066;28;20048;-55
2023/03/11 17:00:17;;;;;;;6.90;1.50;;;;;;;6.41;56.17;100165.50;8305159;28;20049;-54
2023/03/11 17:04:17;;;;;;;5.35;1.60;;;;;;;6.37;56.26;100166.69;8293818;28;20041;-54
2023/03/11 17:08:18;;;;;;;4.50;1.30;;;;;;;6.29;56.56;100163.81;8299042;28;20179;-53
2023/03/11 17:12:18;;;;;;;7.78;1.15;;;;;;;6.36;55.45;100165.00;8302134;28;20053;-54
2023/03/11 17:16:19;;;;;;;5.43;1.52;;;;;;;6.25;56.61;100182.94;8308412;28;20096;-53
2023/03/11 17:20:20;;;;;;;4.60;2.20;;;;;;;5.99;58.18;100169.75;8302410;28;20042;-55
2023/03/11 17:24:20;;;;;;;7.40;1.38;;;;;;;5.82;60.72;100183.63;8321705;28;20046;-55
2023/03/11 17:28:20;;;;;;;6.60;1.80;;;;;;;5.50;63.29;100184.34;8323292;28;20432;-54
2023/03/11 17:32:21;;;;;;;7.25;1.42;;;;;;;5.48;64.09;100187.16;8316343;28;20033;-53
2023/03/11 17:36:21;;;;;;;8.15;2.67;;;;;;;5.45;62.52;100186.53;8317412;28;20045;-53
2023/03/11 17:40:22;;;;;;;5.72;1.60;;;;;;;5.64;61.08;100193.06;8315463;28;20040;-54
2023/03/11 17:44:22;;;;;;;18.13;5.05;;;;;;;5.59;61.19;100189.03;8311179;28;20037;-52
2023/03/11 17:48:23;;;;;;;7.60;3.90;;;;;;;5.54;61.18;100189.38;8311879;28;20041;-54
2023/03/11 17:52:23;;;;;;;6.35;3.28;;;;;;;5.28;62.72;100192.31;8295185;28;20064;-53
2023/03/11 17:56:27;;;;;;;7.30;2.70;;;;;;;5.16;62.38;100186.03;8291262;28;20047;-54
2023/03/11 18:00:27;;;;;;;5.80;1.45;;;;;;;5.08;63.58;100196.50;8310977;28;20495;-53
2023/03/11 18:04:28;;;;;;;7.35;1.88;;;;;;;4.90;65.02;100194.28;8318589;28;20408;-54
2023/03/11 18:08:29;;;;;;;3.65;1.30;;;;;;;4.50;70.05;100195.50;8316846;28;20398;-54
2023/03/11 18:12:30;;;;;;;5.20;1.45;;;;;;;4.59;66.57;100193.03;8322568;28;20098;-53
2023/03/11 18:16:32;;;;;;;3.45;1.50;;;;;;;4.23;67.52;100197.44;8317132;28;20503;-52
2023/03/11 18:20:32;;;;;;;5.30;1.10;;;;;;;3.82;71.71;100187.84;8296505;28;20038;-54
2023/03/11 18:24:33;;;;;;;5.53;1.48;;;;;;;4.01;68.59;100199.00;8331957;28;20040;-54
2023/03/11 18:28:34;;;;;;;6.43;1.90;;;;;;;3.94;69.47;100189.66;8298180;28;20049;-52
2023/03/11 18:32:35;;;;;;;7.75;2.35;;;;;;;3.97;69.84;100202.81;8299040;28;20102;-54
2023/03/11 18:36:36;;;;;;;5.93;2.25;;;;;;;3.90;69.94;100201.53;8302500;28;20045;-53
2023/03/11 18:40:37;;;;;;;9.65;2.78;;;;;;;3.79;68.77;100204.09;8317126;28;20057;-54
2023/03/11 18:44:40;;;;;;;9.35;2.67;;;;;;;3.82;69.48;100200.38;8323217;28;20048;-54
2023/03/11 18:48:41;;;;;;;8.77;2.72;;;;;;;3.65;70.93;100193.50;8323118;28;20029;-52
2023/03/11 18:52:41;;;;;;;12.30;4.65;;;;;;;3.96;69.66;100194.91;8316003;28;20044;-53
2023/03/11 18:56:42;;;;;;;14.70;8.57;;;;;;;4.02;69.98;100211.38;8307471;28;20096;-53
2023/03/11 19:00:43;;;;;;;10.85;4.93;;;;;;;3.99;70.75;100213.41;8307906;28;20074;-53
2023/03/11 19:04:43;;;;;;;13.02;7.25;;;;;;;3.91;72.86;100215.78;8314877;28;20046;-53
2023/03/11 19:08:44;;;;;;;11.38;5.47;;;;;;;3.69;75.96;100231.59;8307295;28;20407;-52
2023/03/11 19:12:45;;;;;;;9.48;2.13;;;;;;;3.48;79.17;100231.19;8315842;28;20507;-55
2023/03/11 19:16:46;;;;;;;13.43;4.20;;;;;;;2.79;81.01;100241.19;8312019;28;20046;-53
2023/03/11 19:20:55;;;;;;;11.05;4.43;;;;;;;2.48;83.05;100233.44;8313272;28;20041;-54
2023/03/11 19:24:55;;;;;;;9.00;4.40;;;;;;;2.80;80.82;100239.41;8312813;28;20065;-54
2023/03/11 19:28:56;;;;;;;7.40;3.63;;;;;;;2.63;83.53;100244.94;8313021;28;20506;-54